50F weather

Bourland Field
Fort Worth, Texas, United States

Public forecast

Using degrees Fahrenheit for public forecast. Weather courtesy of forecast.io.

Closest aviation weather report (METAR) to Bourland Field

Closest report is NAS Fort Worth JRB/Carswell Field, 13.5 nm (25.1 km) NE. Retrieved 2019/12/12 12:52 UTC (29 minutes ago):

KNFW 121252Z 14004KT 10SM BKN250 04/M01 A3032 RMK AO2 SLP248 T00391011 VISNO N

Closest aviation forecast (TAF) to Bourland Field

Forecast is more than 12 hours old.

Closest forecast is NAS Fort Worth JRB/Carswell Field, 13.5 nm (25.1 km) NE. Retrieved 2014/12/04 15:30 UTC (5 years ago):

TAF KNFW 041500Z 0415/0515 16009KT 9999 8000 BR BKN015 OVC060 QNH3004INS TEMPO 0415/0420 3200 -DZ BR BKN009 OVC020 FM050000 16009KT 9999 BKN010 OVC040 QNH3010INS FM051200 17012KT 9999 BKN040 OVC100 QNH3012INS T24/0423Z T13/0512Z FN20046